sensor_id;sensor_type;location;lat;lon;timestamp;P1;durP1;ratioP1;P2;durP2;ratioP2
79487;SDS011;68949;53.176;18.088;2023-08-17T00:00:04;5.00;;;1.20;;
79487;SDS011;68949;53.176;18.088;2023-08-17T00:02:55;5.20;;;1.90;;
79487;SDS011;68949;53.176;18.088;2023-08-17T00:05:22;4.90;;;1.60;;
79487;SDS011;68949;53.176;18.088;2023-08-17T00:07:49;7.10;;;1.50;;
79487;SDS011;68949;53.176;18.088;2023-08-17T00:10:15;4.30;;;1.80;;
79487;SDS011;68949;53.176;18.088;2023-08-17T00:12:42;6.40;;;1.50;;
79487;SDS011;68949;53.176;18.088;2023-08-17T00:15:09;5.00;;;1.60;;
79487;SDS011;68949;53.176;18.088;2023-08-17T00:17:36;5.80;;;1.80;;
79487;SDS011;68949;53.176;18.088;2023-08-17T00:20:03;6.30;;;1.80;;
79487;SDS011;68949;53.176;18.088;2023-08-17T00:22:31;4.00;;;1.50;;
79487;SDS011;68949;53.176;18.088;2023-08-17T00:24:58;5.90;;;1.60;;
79487;SDS011;68949;53.176;18.088;2023-08-17T00:27:24;6.00;;;1.80;;
79487;SDS011;68949;53.176;18.088;2023-08-17T00:29:52;7.60;;;2.00;;
79487;SDS011;68949;53.176;18.088;2023-08-17T00:32:19;4.90;;;1.30;;
79487;SDS011;68949;53.176;18.088;2023-08-17T00:34:48;6.60;;;2.00;;
79487;SDS011;68949;53.176;18.088;2023-08-17T00:37:15;8.00;;;1.70;;
79487;SDS011;68949;53.176;18.088;2023-08-17T00:39:42;5.10;;;1.70;;
79487;SDS011;68949;53.176;18.088;2023-08-17T00:42:08;4.10;;;1.30;;
79487;SDS011;68949;53.176;18.088;2023-08-17T00:44:36;5.20;;;2.10;;
79487;SDS011;68949;53.176;18.088;2023-08-17T00:47:03;4.70;;;1.90;;
79487;SDS011;68949;53.176;18.088;2023-08-17T00:49:31;3.50;;;1.20;;
79487;SDS011;68949;53.176;18.088;2023-08-17T00:51:58;4.60;;;1.30;;
79487;SDS011;68949;53.176;18.088;2023-08-17T00:54:27;4.40;;;1.40;;
79487;SDS011;68949;53.176;18.088;2023-08-17T00:56:56;5.30;;;1.40;;
79487;SDS011;68949;53.176;18.088;2023-08-17T00:59:23;5.00;;;1.40;;
79487;SDS011;68949;53.176;18.088;2023-08-17T01:01:50;4.40;;;1.70;;
79487;SDS011;68949;53.176;18.088;2023-08-17T01:04:17;7.70;;;2.30;;
79487;SDS011;68949;53.176;18.088;2023-08-17T01:06:44;5.00;;;1.70;;
79487;SDS011;68949;53.176;18.088;2023-08-17T01:09:10;6.80;;;1.60;;
79487;SDS011;68949;53.176;18.088;2023-08-17T01:11:51;5.80;;;1.60;;
79487;SDS011;68949;53.176;18.088;2023-08-17T01:17:58;4.80;;;1.20;;
79487;SDS011;68949;53.176;18.088;2023-08-17T01:20:33;5.70;;;1.50;;
79487;SDS011;68949;53.176;18.088;2023-08-17T01:23:06;6.00;;;1.60;;
79487;SDS011;68949;53.176;18.088;2023-08-17T01:25:33;5.80;;;2.20;;
79487;SDS011;68949;53.176;18.088;2023-08-17T01:28:04;6.30;;;1.70;;
79487;SDS011;68949;53.176;18.088;2023-08-17T01:31:11;5.20;;;1.50;;
79487;SDS011;68949;53.176;18.088;2023-08-17T01:33:49;5.10;;;1.50;;
79487;SDS011;68949;53.176;18.088;2023-08-17T01:36:25;6.90;;;1.70;;
79487;SDS011;68949;53.176;18.088;2023-08-17T01:38:56;4.70;;;1.60;;
79487;SDS011;68949;53.176;18.088;2023-08-17T01:41:25;4.50;;;2.00;;
79487;SDS011;68949;53.176;18.088;2023-08-17T01:43:53;5.90;;;1.70;;
79487;SDS011;68949;53.176;18.088;2023-08-17T01:46:22;4.40;;;1.40;;
79487;SDS011;68949;53.176;18.088;2023-08-17T01:48:49;5.20;;;1.50;;
79487;SDS011;68949;53.176;18.088;2023-08-17T01:51:19;7.20;;;1.80;;
79487;SDS011;68949;53.176;18.088;2023-08-17T01:53:46;6.40;;;2.20;;
79487;SDS011;68949;53.176;18.088;2023-08-17T01:56:13;5.00;;;2.00;;
79487;SDS011;68949;53.176;18.088;2023-08-17T01:58:40;4.00;;;1.30;;
79487;SDS011;68949;53.176;18.088;2023-08-17T02:01:07;5.60;;;1.70;;
79487;SDS011;68949;53.176;18.088;2023-08-17T02:03:34;6.80;;;1.70;;
79487;SDS011;68949;53.176;18.088;2023-08-17T02:06:01;4.40;;;1.10;;
79487;SDS011;68949;53.176;18.088;2023-08-17T02:08:28;6.80;;;1.20;;
79487;SDS011;68949;53.176;18.088;2023-08-17T02:10:55;8.10;;;2.30;;
79487;SDS011;68949;53.176;18.088;2023-08-17T02:13:22;4.10;;;1.20;;
79487;SDS011;68949;53.176;18.088;2023-08-17T02:15:48;8.40;;;1.90;;
79487;SDS011;68949;53.176;18.088;2023-08-17T02:18:15;4.50;;;1.20;;
79487;SDS011;68949;53.176;18.088;2023-08-17T02:20:42;5.60;;;1.70;;
79487;SDS011;68949;53.176;18.088;2023-08-17T02:23:08;4.30;;;1.40;;
79487;SDS011;68949;53.176;18.088;2023-08-17T02:25:38;4.70;;;1.20;;
79487;SDS011;68949;53.176;18.088;2023-08-17T02:28:05;4.20;;;1.60;;
79487;SDS011;68949;53.176;18.088;2023-08-17T02:30:32;4.70;;;1.10;;
79487;SDS011;68949;53.176;18.088;2023-08-17T02:32:59;4.10;;;1.50;;
79487;SDS011;68949;53.176;18.088;2023-08-17T02:35:25;8.30;;;2.10;;
79487;SDS011;68949;53.176;18.088;2023-08-17T02:37:53;4.60;;;1.30;;
79487;SDS011;68949;53.176;18.088;2023-08-17T02:40:19;4.50;;;1.20;;
79487;SDS011;68949;53.176;18.088;2023-08-17T02:42:46;4.80;;;1.40;;
79487;SDS011;68949;53.176;18.088;2023-08-17T02:45:13;5.70;;;1.10;;
79487;SDS011;68949;53.176;18.088;2023-08-17T02:47:39;4.20;;;1.10;;
79487;SDS011;68949;53.176;18.088;2023-08-17T02:50:06;5.20;;;1.40;;
79487;SDS011;68949;53.176;18.088;2023-08-17T02:52:33;5.00;;;1.50;;
79487;SDS011;68949;53.176;18.088;2023-08-17T02:55:00;5.10;;;1.80;;
79487;SDS011;68949;53.176;18.088;2023-08-17T02:57:27;3.50;;;1.20;;
79487;SDS011;68949;53.176;18.088;2023-08-17T02:59:53;5.60;;;1.40;;
79487;SDS011;68949;53.176;18.088;2023-08-17T03:02:20;3.50;;;0.90;;
79487;SDS011;68949;53.176;18.088;2023-08-17T03:04:47;5.70;;;1.30;;
79487;SDS011;68949;53.176;18.088;2023-08-17T03:07:13;4.00;;;1.10;;
79487;SDS011;68949;53.176;18.088;2023-08-17T03:09:40;5.20;;;1.40;;
79487;SDS011;68949;53.176;18.088;2023-08-17T03:12:07;6.60;;;1.40;;
79487;SDS011;68949;53.176;18.088;2023-08-17T03:14:33;4.10;;;0.90;;
79487;SDS011;68949;53.176;18.088;2023-08-17T03:17:00;3.50;;;0.90;;
79487;SDS011;68949;53.176;18.088;2023-08-17T03:19:27;5.50;;;1.10;;
79487;SDS011;68949;53.176;18.088;2023-08-17T03:21:53;4.00;;;1.10;;
79487;SDS011;68949;53.176;18.088;2023-08-17T03:24:20;3.30;;;0.80;;
79487;SDS011;68949;53.176;18.088;2023-08-17T03:26:47;4.40;;;1.00;;
79487;SDS011;68949;53.176;18.088;2023-08-17T03:29:14;4.30;;;1.30;;
79487;SDS011;68949;53.176;18.088;2023-08-17T03:31:40;3.90;;;1.00;;
79487;SDS011;68949;53.176;18.088;2023-08-17T03:34:08;2.90;;;0.70;;
79487;SDS011;68949;53.176;18.088;2023-08-17T03:36:35;3.50;;;0.80;;
79487;SDS011;68949;53.176;18.088;2023-08-17T03:39:02;5.20;;;1.10;;
79487;SDS011;68949;53.176;18.088;2023-08-17T03:41:29;5.70;;;1.30;;
79487;SDS011;68949;53.176;18.088;2023-08-17T03:43:58;5.10;;;1.40;;
79487;SDS011;68949;53.176;18.088;2023-08-17T03:46:24;3.10;;;0.90;;
79487;SDS011;68949;53.176;18.088;2023-08-17T03:48:51;4.20;;;1.00;;
79487;SDS011;68949;53.176;18.088;2023-08-17T03:51:18;3.90;;;0.80;;
79487;SDS011;68949;53.176;18.088;2023-08-17T03:53:45;3.70;;;0.70;;
79487;SDS011;68949;53.176;18.088;2023-08-17T03:56:12;3.60;;;1.00;;
79487;SDS011;68949;53.176;18.088;2023-08-17T03:58:41;4.40;;;0.70;;
79487;SDS011;68949;53.176;18.088;2023-08-17T04:01:08;3.50;;;0.90;;
79487;SDS011;68949;53.176;18.088;2023-08-17T04:03:36;3.40;;;1.10;;
79487;SDS011;68949;53.176;18.088;2023-08-17T04:06:07;8.10;;;1.30;;
79487;SDS011;68949;53.176;18.088;2023-08-17T04:08:37;4.00;;;1.00;;
79487;SDS011;68949;53.176;18.088;2023-08-17T04:11:05;3.40;;;0.70;;
79487;SDS011;68949;53.176;18.088;2023-08-17T04:13:32;6.10;;;1.10;;
79487;SDS011;68949;53.176;18.088;2023-08-17T04:15:59;2.90;;;0.70;;
79487;SDS011;68949;53.176;18.088;2023-08-17T04:18:26;4.10;;;1.10;;
79487;SDS011;68949;53.176;18.088;2023-08-17T04:20:53;5.50;;;1.10;;
79487;SDS011;68949;53.176;18.088;2023-08-17T04:23:20;3.40;;;0.90;;
79487;SDS011;68949;53.176;18.088;2023-08-17T04:25:47;3.70;;;0.90;;
79487;SDS011;68949;53.176;18.088;2023-08-17T04:28:14;4.10;;;1.00;;
79487;SDS011;68949;53.176;18.088;2023-08-17T04:30:41;4.30;;;1.20;;
79487;SDS011;68949;53.176;18.088;2023-08-17T04:33:08;5.50;;;1.40;;
79487;SDS011;68949;53.176;18.088;2023-08-17T04:35:35;5.10;;;0.90;;
79487;SDS011;68949;53.176;18.088;2023-08-17T04:38:02;4.60;;;1.30;;
79487;SDS011;68949;53.176;18.088;2023-08-17T04:40:29;4.30;;;0.80;;
79487;SDS011;68949;53.176;18.088;2023-08-17T04:42:56;5.20;;;1.30;;
79487;SDS011;68949;53.176;18.088;2023-08-17T04:45:23;3.40;;;1.10;;
79487;SDS011;68949;53.176;18.088;2023-08-17T04:47:50;5.40;;;1.30;;
79487;SDS011;68949;53.176;18.088;2023-08-17T04:50:17;4.70;;;1.20;;
79487;SDS011;68949;53.176;18.088;2023-08-17T04:52:44;3.70;;;1.10;;
79487;SDS011;68949;53.176;18.088;2023-08-17T04:55:12;3.90;;;0.90;;
79487;SDS011;68949;53.176;18.088;2023-08-17T04:57:39;4.20;;;1.10;;
79487;SDS011;68949;53.176;18.088;2023-08-17T05:00:10;6.30;;;1.30;;
79487;SDS011;68949;53.176;18.088;2023-08-17T05:02:39;5.70;;;1.80;;
79487;SDS011;68949;53.176;18.088;2023-08-17T05:05:07;4.50;;;1.10;;
79487;SDS011;68949;53.176;18.088;2023-08-17T05:07:36;4.10;;;1.30;;
79487;SDS011;68949;53.176;18.088;2023-08-17T05:10:03;6.40;;;1.90;;
79487;SDS011;68949;53.176;18.088;2023-08-17T05:12:30;7.20;;;1.90;;
79487;SDS011;68949;53.176;18.088;2023-08-17T05:14:57;5.70;;;1.80;;
79487;SDS011;68949;53.176;18.088;2023-08-17T05:17:24;4.80;;;1.40;;
79487;SDS011;68949;53.176;18.088;2023-08-17T05:19:51;4.80;;;1.70;;
79487;SDS011;68949;53.176;18.088;2023-08-17T05:22:19;6.10;;;2.30;;
79487;SDS011;68949;53.176;18.088;2023-08-17T05:24:45;4.50;;;1.50;;
79487;SDS011;68949;53.176;18.088;2023-08-17T05:27:12;5.00;;;1.50;;
79487;SDS011;68949;53.176;18.088;2023-08-17T05:29:39;5.10;;;1.70;;
79487;SDS011;68949;53.176;18.088;2023-08-17T05:32:05;4.70;;;1.90;;
79487;SDS011;68949;53.176;18.088;2023-08-17T05:34:33;5.10;;;1.70;;
79487;SDS011;68949;53.176;18.088;2023-08-17T05:36:59;5.50;;;1.60;;
79487;SDS011;68949;53.176;18.088;2023-08-17T05:39:26;5.40;;;1.70;;
79487;SDS011;68949;53.176;18.088;2023-08-17T05:41:53;5.40;;;2.00;;
79487;SDS011;68949;53.176;18.088;2023-08-17T05:44:21;4.70;;;2.10;;
79487;SDS011;68949;53.176;18.088;2023-08-17T05:46:47;6.50;;;2.20;;
79487;SDS011;68949;53.176;18.088;2023-08-17T05:49:14;6.80;;;2.30;;
79487;SDS011;68949;53.176;18.088;2023-08-17T05:51:41;6.00;;;2.30;;
79487;SDS011;68949;53.176;18.088;2023-08-17T05:54:08;4.90;;;1.80;;
79487;SDS011;68949;53.176;18.088;2023-08-17T05:56:34;6.90;;;2.10;;
79487;SDS011;68949;53.176;18.088;2023-08-17T05:59:01;6.40;;;1.70;;
79487;SDS011;68949;53.176;18.088;2023-08-17T06:01:28;5.40;;;1.80;;
79487;SDS011;68949;53.176;18.088;2023-08-17T06:03:54;6.50;;;1.80;;
79487;SDS011;68949;53.176;18.088;2023-08-17T06:06:21;5.30;;;2.10;;
79487;SDS011;68949;53.176;18.088;2023-08-17T06:08:48;8.60;;;2.60;;
79487;SDS011;68949;53.176;18.088;2023-08-17T06:11:14;6.10;;;2.30;;
79487;SDS011;68949;53.176;18.088;2023-08-17T06:13:41;7.30;;;2.30;;
79487;SDS011;68949;53.176;18.088;2023-08-17T06:16:08;6.40;;;2.60;;
79487;SDS011;68949;53.176;18.088;2023-08-17T06:18:35;6.40;;;2.30;;
79487;SDS011;68949;53.176;18.088;2023-08-17T06:21:02;7.10;;;2.20;;
79487;SDS011;68949;53.176;18.088;2023-08-17T06:23:29;4.30;;;1.70;;
79487;SDS011;68949;53.176;18.088;2023-08-17T06:25:57;6.80;;;2.10;;
79487;SDS011;68949;53.176;18.088;2023-08-17T06:28:25;7.40;;;1.90;;
79487;SDS011;68949;53.176;18.088;2023-08-17T06:30:54;4.40;;;1.50;;
79487;SDS011;68949;53.176;18.088;2023-08-17T06:33:22;4.70;;;1.50;;
79487;SDS011;68949;53.176;18.088;2023-08-17T06:35:49;5.20;;;1.50;;
79487;SDS011;68949;53.176;18.088;2023-08-17T06:38:16;5.30;;;2.00;;
79487;SDS011;68949;53.176;18.088;2023-08-17T06:40:43;4.60;;;1.80;;
79487;SDS011;68949;53.176;18.088;2023-08-17T06:43:11;6.90;;;2.20;;
79487;SDS011;68949;53.176;18.088;2023-08-17T06:45:38;4.40;;;1.70;;
79487;SDS011;68949;53.176;18.088;2023-08-17T06:48:05;5.30;;;1.60;;
79487;SDS011;68949;53.176;18.088;2023-08-17T06:50:32;6.50;;;1.90;;
79487;SDS011;68949;53.176;18.088;2023-08-17T06:52:58;6.80;;;1.90;;
79487;SDS011;68949;53.176;18.088;2023-08-17T06:55:25;6.20;;;2.40;;
79487;SDS011;68949;53.176;18.088;2023-08-17T06:57:52;6.00;;;2.00;;
79487;SDS011;68949;53.176;18.088;2023-08-17T07:00:18;6.50;;;2.10;;
79487;SDS011;68949;53.176;18.088;2023-08-17T07:02:48;5.30;;;1.90;;
79487;SDS011;68949;53.176;18.088;2023-08-17T07:05:15;4.10;;;1.40;;
79487;SDS011;68949;53.176;18.088;2023-08-17T07:07:44;5.20;;;1.60;;
79487;SDS011;68949;53.176;18.088;2023-08-17T07:10:11;4.40;;;1.70;;
79487;SDS011;68949;53.176;18.088;2023-08-17T07:12:39;7.00;;;1.70;;
79487;SDS011;68949;53.176;18.088;2023-08-17T07:15:07;5.00;;;1.50;;
79487;SDS011;68949;53.176;18.088;2023-08-17T07:17:35;4.80;;;1.60;;
79487;SDS011;68949;53.176;18.088;2023-08-17T07:20:03;4.20;;;1.80;;
79487;SDS011;68949;53.176;18.088;2023-08-17T07:22:33;7.40;;;2.00;;
79487;SDS011;68949;53.176;18.088;2023-08-17T07:25:01;4.60;;;1.70;;
79487;SDS011;68949;53.176;18.088;2023-08-17T07:27:28;6.40;;;1.50;;
79487;SDS011;68949;53.176;18.088;2023-08-17T07:29:55;7.40;;;2.40;;
79487;SDS011;68949;53.176;18.088;2023-08-17T07:32:22;8.30;;;2.20;;
79487;SDS011;68949;53.176;18.088;2023-08-17T07:34:49;7.40;;;2.20;;
79487;SDS011;68949;53.176;18.088;2023-08-17T07:37:15;6.50;;;2.10;;
79487;SDS011;68949;53.176;18.088;2023-08-17T07:39:42;5.00;;;2.50;;
79487;SDS011;68949;53.176;18.088;2023-08-17T07:42:10;5.40;;;2.20;;
79487;SDS011;68949;53.176;18.088;2023-08-17T07:44:37;5.60;;;2.10;;
79487;SDS011;68949;53.176;18.088;2023-08-17T07:47:07;7.40;;;3.30;;
79487;SDS011;68949;53.176;18.088;2023-08-17T07:49:33;6.90;;;2.10;;
79487;SDS011;68949;53.176;18.088;2023-08-17T07:52:00;6.70;;;2.40;;
79487;SDS011;68949;53.176;18.088;2023-08-17T07:54:27;5.20;;;2.30;;
79487;SDS011;68949;53.176;18.088;2023-08-17T07:56:54;6.90;;;2.50;;
79487;SDS011;68949;53.176;18.088;2023-08-17T07:59:20;7.10;;;2.80;;
79487;SDS011;68949;53.176;18.088;2023-08-17T08:01:47;6.70;;;2.80;;
79487;SDS011;68949;53.176;18.088;2023-08-17T08:04:14;5.30;;;2.30;;
79487;SDS011;68949;53.176;18.088;2023-08-17T08:06:40;5.40;;;1.80;;
79487;SDS011;68949;53.176;18.088;2023-08-17T08:09:07;4.50;;;1.90;;
79487;SDS011;68949;53.176;18.088;2023-08-17T08:11:34;6.80;;;2.60;;
79487;SDS011;68949;53.176;18.088;2023-08-17T08:14:01;8.90;;;2.50;;
79487;SDS011;68949;53.176;18.088;2023-08-17T08:16:28;4.90;;;1.50;;
79487;SDS011;68949;53.176;18.088;2023-08-17T08:18:57;5.50;;;1.70;;
79487;SDS011;68949;53.176;18.088;2023-08-17T08:21:23;5.30;;;1.70;;
79487;SDS011;68949;53.176;18.088;2023-08-17T08:23:50;4.50;;;1.80;;
79487;SDS011;68949;53.176;18.088;2023-08-17T08:26:17;5.40;;;1.60;;
79487;SDS011;68949;53.176;18.088;2023-08-17T08:28:45;5.40;;;1.70;;
79487;SDS011;68949;53.176;18.088;2023-08-17T08:31:11;3.70;;;1.30;;
79487;SDS011;68949;53.176;18.088;2023-08-17T08:33:38;4.80;;;1.60;;
79487;SDS011;68949;53.176;18.088;2023-08-17T08:36:05;5.80;;;1.50;;
79487;SDS011;68949;53.176;18.088;2023-08-17T08:38:37;5.60;;;1.40;;
79487;SDS011;68949;53.176;18.088;2023-08-17T08:41:09;6.20;;;1.70;;
79487;SDS011;68949;53.176;18.088;2023-08-17T08:43:51;3.90;;;1.80;;
79487;SDS011;68949;53.176;18.088;2023-08-17T08:46:20;5.20;;;1.60;;
79487;SDS011;68949;53.176;18.088;2023-08-17T08:48:50;5.70;;;1.60;;
79487;SDS011;68949;53.176;18.088;2023-08-17T08:51:25;5.10;;;1.20;;
79487;SDS011;68949;53.176;18.088;2023-08-17T08:54:01;5.00;;;1.40;;
79487;SDS011;68949;53.176;18.088;2023-08-17T08:56:35;5.40;;;1.00;;
79487;SDS011;68949;53.176;18.088;2023-08-17T08:59:05;4.20;;;1.30;;
79487;SDS011;68949;53.176;18.088;2023-08-17T09:01:38;3.90;;;1.00;;
79487;SDS011;68949;53.176;18.088;2023-08-17T09:04:06;3.30;;;1.10;;
79487;SDS011;68949;53.176;18.088;2023-08-17T09:06:59;6.20;;;1.20;;
79487;SDS011;68949;53.176;18.088;2023-08-17T09:09:30;7.10;;;1.30;;
79487;SDS011;68949;53.176;18.088;2023-08-17T09:12:08;5.20;;;1.10;;
79487;SDS011;68949;53.176;18.088;2023-08-17T09:14:37;4.40;;;1.20;;
79487;SDS011;68949;53.176;18.088;2023-08-17T09:17:04;4.30;;;1.10;;
79487;SDS011;68949;53.176;18.088;2023-08-17T09:19:32;3.40;;;0.90;;
79487;SDS011;68949;53.176;18.088;2023-08-17T09:22:02;3.90;;;1.10;;
79487;SDS011;68949;53.176;18.088;2023-08-17T09:24:36;3.70;;;1.20;;
79487;SDS011;68949;53.176;18.088;2023-08-17T09:27:04;3.70;;;1.20;;
79487;SDS011;68949;53.176;18.088;2023-08-17T09:29:31;4.30;;;1.40;;
79487;SDS011;68949;53.176;18.088;2023-08-17T09:32:06;4.20;;;1.30;;
79487;SDS011;68949;53.176;18.088;2023-08-17T09:34:33;4.70;;;1.40;;
79487;SDS011;68949;53.176;18.088;2023-08-17T09:37:03;6.50;;;1.50;;
79487;SDS011;68949;53.176;18.088;2023-08-17T09:39:31;5.60;;;1.60;;
79487;SDS011;68949;53.176;18.088;2023-08-17T09:42:01;4.60;;;1.60;;
79487;SDS011;68949;53.176;18.088;2023-08-17T09:44:28;5.30;;;1.70;;
79487;SDS011;68949;53.176;18.088;2023-08-17T09:46:55;3.70;;;1.30;;
79487;SDS011;68949;53.176;18.088;2023-08-17T09:49:23;6.00;;;1.70;;
79487;SDS011;68949;53.176;18.088;2023-08-17T09:51:51;5.10;;;1.70;;
79487;SDS011;68949;53.176;18.088;2023-08-17T09:54:22;4.50;;;1.40;;
79487;SDS011;68949;53.176;18.088;2023-08-17T09:56:50;9.10;;;1.40;;
79487;SDS011;68949;53.176;18.088;2023-08-17T09:59:19;4.70;;;1.50;;
79487;SDS011;68949;53.176;18.088;2023-08-17T10:01:49;5.60;;;1.40;;
79487;SDS011;68949;53.176;18.088;2023-08-17T10:04:21;6.20;;;1.60;;
79487;SDS011;68949;53.176;18.088;2023-08-17T10:07:00;5.80;;;1.60;;
79487;SDS011;68949;53.176;18.088;2023-08-17T10:09:38;4.10;;;1.70;;
79487;SDS011;68949;53.176;18.088;2023-08-17T10:12:10;6.40;;;2.00;;
79487;SDS011;68949;53.176;18.088;2023-08-17T10:14:55;5.00;;;1.60;;
79487;SDS011;68949;53.176;18.088;2023-08-17T10:17:43;4.00;;;1.70;;
79487;SDS011;68949;53.176;18.088;2023-08-17T10:20:14;4.00;;;1.40;;
79487;SDS011;68949;53.176;18.088;2023-08-17T10:22:48;4.30;;;1.50;;
79487;SDS011;68949;53.176;18.088;2023-08-17T10:25:21;5.40;;;1.60;;
79487;SDS011;68949;53.176;18.088;2023-08-17T10:27:49;3.90;;;1.30;;
79487;SDS011;68949;53.176;18.088;2023-08-17T10:30:18;3.50;;;1.30;;
79487;SDS011;68949;53.176;18.088;2023-08-17T10:32:46;3.60;;;1.50;;
79487;SDS011;68949;53.176;18.088;2023-08-17T10:35:14;4.30;;;1.10;;
79487;SDS011;68949;53.176;18.088;2023-08-17T10:37:43;4.10;;;1.50;;
79487;SDS011;68949;53.176;18.088;2023-08-17T10:40:11;4.60;;;1.30;;
79487;SDS011;68949;53.176;18.088;2023-08-17T10:42:38;5.10;;;1.60;;
79487;SDS011;68949;53.176;18.088;2023-08-17T10:45:28;4.50;;;1.30;;
79487;SDS011;68949;53.176;18.088;2023-08-17T10:48:26;4.60;;;1.40;;
79487;SDS011;68949;53.176;18.088;2023-08-17T10:51:03;5.80;;;1.50;;
79487;SDS011;68949;53.176;18.088;2023-08-17T10:53:35;6.70;;;1.30;;
79487;SDS011;68949;53.176;18.088;2023-08-17T10:56:07;4.70;;;1.60;;
79487;SDS011;68949;53.176;18.088;2023-08-17T10:58:35;4.50;;;1.50;;
79487;SDS011;68949;53.176;18.088;2023-08-17T11:01:02;5.60;;;1.90;;
79487;SDS011;68949;53.176;18.088;2023-08-17T11:03:30;5.40;;;1.60;;
79487;SDS011;68949;53.176;18.088;2023-08-17T11:06:14;5.60;;;1.80;;
79487;SDS011;68949;53.176;18.088;2023-08-17T11:08:54;5.10;;;1.70;;
79487;SDS011;68949;53.176;18.088;2023-08-17T11:11:24;5.50;;;1.90;;
79487;SDS011;68949;53.176;18.088;2023-08-17T11:13:52;5.50;;;1.80;;
79487;SDS011;68949;53.176;18.088;2023-08-17T11:16:19;4.00;;;1.60;;
79487;SDS011;68949;53.176;18.088;2023-08-17T11:18:49;4.70;;;1.70;;
79487;SDS011;68949;53.176;18.088;2023-08-17T11:21:18;4.60;;;1.70;;
79487;SDS011;68949;53.176;18.088;2023-08-17T11:23:46;4.70;;;1.90;;
79487;SDS011;68949;53.176;18.088;2023-08-17T11:26:17;5.20;;;2.00;;
79487;SDS011;68949;53.176;18.088;2023-08-17T11:28:45;4.50;;;1.70;;
79487;SDS011;68949;53.176;18.088;2023-08-17T11:31:13;5.40;;;2.50;;
79487;SDS011;68949;53.176;18.088;2023-08-17T11:33:41;5.30;;;2.20;;
79487;SDS011;68949;53.176;18.088;2023-08-17T11:36:08;4.80;;;2.20;;
79487;SDS011;68949;53.176;18.088;2023-08-17T11:38:38;6.60;;;2.50;;
79487;SDS011;68949;53.176;18.088;2023-08-17T11:41:08;5.90;;;2.40;;
79487;SDS011;68949;53.176;18.088;2023-08-17T11:43:35;8.90;;;2.30;;
79487;SDS011;68949;53.176;18.088;2023-08-17T11:46:04;7.10;;;2.40;;
79487;SDS011;68949;53.176;18.088;2023-08-17T11:48:31;6.00;;;2.20;;
79487;SDS011;68949;53.176;18.088;2023-08-17T11:50:58;6.30;;;3.00;;
79487;SDS011;68949;53.176;18.088;2023-08-17T11:53:32;4.50;;;2.30;;
79487;SDS011;68949;53.176;18.088;2023-08-17T11:56:01;6.50;;;2.30;;
79487;SDS011;68949;53.176;18.088;2023-08-17T11:58:43;7.50;;;2.20;;
79487;SDS011;68949;53.176;18.088;2023-08-17T12:01:13;5.90;;;2.20;;
79487;SDS011;68949;53.176;18.088;2023-08-17T12:03:42;4.90;;;2.10;;
79487;SDS011;68949;53.176;18.088;2023-08-17T12:06:09;4.50;;;1.90;;
79487;SDS011;68949;53.176;18.088;2023-08-17T12:08:42;4.70;;;2.10;;
79487;SDS011;68949;53.176;18.088;2023-08-17T12:11:11;6.10;;;2.70;;
79487;SDS011;68949;53.176;18.088;2023-08-17T12:13:38;5.10;;;2.50;;
79487;SDS011;68949;53.176;18.088;2023-08-17T12:16:05;4.00;;;1.70;;
79487;SDS011;68949;53.176;18.088;2023-08-17T12:18:33;5.10;;;2.60;;
79487;SDS011;68949;53.176;18.088;2023-08-17T12:21:03;9.00;;;2.60;;
79487;SDS011;68949;53.176;18.088;2023-08-17T12:23:32;6.40;;;2.80;;
79487;SDS011;68949;53.176;18.088;2023-08-17T12:25:59;5.70;;;3.10;;
79487;SDS011;68949;53.176;18.088;2023-08-17T12:28:26;7.40;;;2.20;;
79487;SDS011;68949;53.176;18.088;2023-08-17T12:31:02;5.60;;;2.30;;
79487;SDS011;68949;53.176;18.088;2023-08-17T12:33:29;5.90;;;2.20;;
79487;SDS011;68949;53.176;18.088;2023-08-17T12:35:56;5.50;;;2.90;;
79487;SDS011;68949;53.176;18.088;2023-08-17T12:38:24;6.10;;;3.10;;
79487;SDS011;68949;53.176;18.088;2023-08-17T12:40:52;8.10;;;3.40;;
79487;SDS011;68949;53.176;18.088;2023-08-17T12:43:19;5.90;;;2.20;;
79487;SDS011;68949;53.176;18.088;2023-08-17T12:45:45;6.50;;;3.00;;
79487;SDS011;68949;53.176;18.088;2023-08-17T12:48:12;6.10;;;2.70;;
79487;SDS011;68949;53.176;18.088;2023-08-17T12:50:39;5.70;;;2.70;;
79487;SDS011;68949;53.176;18.088;2023-08-17T12:53:05;7.30;;;3.10;;
79487;SDS011;68949;53.176;18.088;2023-08-17T12:55:32;6.30;;;2.80;;
79487;SDS011;68949;53.176;18.088;2023-08-17T12:57:59;5.50;;;2.60;;
79487;SDS011;68949;53.176;18.088;2023-08-17T13:00:25;5.80;;;2.10;;
79487;SDS011;68949;53.176;18.088;2023-08-17T13:02:52;5.20;;;2.50;;
79487;SDS011;68949;53.176;18.088;2023-08-17T13:05:19;4.40;;;2.10;;
79487;SDS011;68949;53.176;18.088;2023-08-17T13:07:45;7.30;;;3.10;;
79487;SDS011;68949;53.176;18.088;2023-08-17T13:10:12;6.70;;;2.60;;
79487;SDS011;68949;53.176;18.088;2023-08-17T13:12:39;6.50;;;2.80;;
79487;SDS011;68949;53.176;18.088;2023-08-17T13:15:06;6.20;;;3.00;;
79487;SDS011;68949;53.176;18.088;2023-08-17T13:17:33;7.60;;;2.80;;
79487;SDS011;68949;53.176;18.088;2023-08-17T13:20:00;5.80;;;2.40;;
79487;SDS011;68949;53.176;18.088;2023-08-17T13:22:27;5.90;;;2.40;;
79487;SDS011;68949;53.176;18.088;2023-08-17T13:24:54;4.60;;;2.30;;
79487;SDS011;68949;53.176;18.088;2023-08-17T13:27:21;7.20;;;3.10;;
79487;SDS011;68949;53.176;18.088;2023-08-17T13:29:47;5.50;;;3.30;;
79487;SDS011;68949;53.176;18.088;2023-08-17T13:32:15;7.90;;;3.30;;
79487;SDS011;68949;53.176;18.088;2023-08-17T13:34:42;6.90;;;3.40;;
79487;SDS011;68949;53.176;18.088;2023-08-17T13:37:09;5.40;;;2.80;;
79487;SDS011;68949;53.176;18.088;2023-08-17T13:39:35;4.90;;;2.70;;
79487;SDS011;68949;53.176;18.088;2023-08-17T13:42:02;6.80;;;2.80;;
79487;SDS011;68949;53.176;18.088;2023-08-17T13:44:29;7.70;;;3.20;;
79487;SDS011;68949;53.176;18.088;2023-08-17T13:46:56;8.30;;;3.60;;
79487;SDS011;68949;53.176;18.088;2023-08-17T13:49:23;7.60;;;3.00;;
79487;SDS011;68949;53.176;18.088;2023-08-17T13:51:50;7.50;;;3.20;;
79487;SDS011;68949;53.176;18.088;2023-08-17T13:54:16;8.20;;;3.60;;
79487;SDS011;68949;53.176;18.088;2023-08-17T13:56:43;8.10;;;3.20;;
79487;SDS011;68949;53.176;18.088;2023-08-17T13:59:10;6.90;;;2.90;;
79487;SDS011;68949;53.176;18.088;2023-08-17T14:01:37;6.60;;;2.60;;
79487;SDS011;68949;53.176;18.088;2023-08-17T14:04:05;5.70;;;2.90;;
79487;SDS011;68949;53.176;18.088;2023-08-17T14:06:38;6.60;;;2.80;;
79487;SDS011;68949;53.176;18.088;2023-08-17T14:09:05;5.10;;;2.50;;
79487;SDS011;68949;53.176;18.088;2023-08-17T14:11:33;9.80;;;3.40;;
79487;SDS011;68949;53.176;18.088;2023-08-17T14:13:59;5.80;;;3.10;;
79487;SDS011;68949;53.176;18.088;2023-08-17T14:16:26;5.60;;;2.50;;
79487;SDS011;68949;53.176;18.088;2023-08-17T14:18:53;4.50;;;2.30;;
79487;SDS011;68949;53.176;18.088;2023-08-17T14:21:21;5.30;;;2.60;;
79487;SDS011;68949;53.176;18.088;2023-08-17T14:23:48;6.00;;;3.00;;
79487;SDS011;68949;53.176;18.088;2023-08-17T14:26:15;6.10;;;2.50;;
79487;SDS011;68949;53.176;18.088;2023-08-17T14:28:42;7.40;;;2.80;;
79487;SDS011;68949;53.176;18.088;2023-08-17T14:31:09;6.80;;;3.10;;
79487;SDS011;68949;53.176;18.088;2023-08-17T14:33:38;5.90;;;2.70;;
79487;SDS011;68949;53.176;18.088;2023-08-17T14:36:04;6.70;;;2.80;;
79487;SDS011;68949;53.176;18.088;2023-08-17T14:38:31;5.90;;;2.70;;
79487;SDS011;68949;53.176;18.088;2023-08-17T14:40:58;5.70;;;3.10;;
79487;SDS011;68949;53.176;18.088;2023-08-17T14:43:24;7.80;;;2.60;;